sensor_id;sensor_type;location;lat;lon;timestamp;temperature;humidity
65637;DHT22;52327;42.622;23.316;2023-06-14T00:00:14;16.35;90.94
65637;DHT22;52327;42.622;23.316;2023-06-14T00:02:40;16.52;89.93
65637;DHT22;52327;42.622;23.316;2023-06-14T00:05:06;16.49;90.31
65637;DHT22;52327;42.622;23.316;2023-06-14T00:07:39;16.48;90.44
65637;DHT22;52327;42.622;23.316;2023-06-14T00:10:11;16.41;90.78
65637;DHT22;52327;42.622;23.316;2023-06-14T00:12:38;16.35;90.89
65637;DHT22;52327;42.622;23.316;2023-06-14T00:15:04;16.38;90.92
65637;DHT22;52327;42.622;23.316;2023-06-14T00:17:30;16.41;90.96
65637;DHT22;52327;42.622;23.316;2023-06-14T00:19:57;16.42;90.66
65637;DHT22;52327;42.622;23.316;2023-06-14T00:22:23;16.40;90.72
65637;DHT22;52327;42.622;23.316;2023-06-14T00:24:54;16.34;90.76
65637;DHT22;52327;42.622;23.316;2023-06-14T00:27:20;16.44;90.06
65637;DHT22;52327;42.622;23.316;2023-06-14T00:29:45;16.47;90.19
65637;DHT22;52327;42.622;23.316;2023-06-14T00:32:11;16.11;89.33
65637;DHT22;52327;42.622;23.316;2023-06-14T00:34:36;15.87;90.74
65637;DHT22;52327;42.622;23.316;2023-06-14T00:37:02;16.03;90.96
65637;DHT22;52327;42.622;23.316;2023-06-14T00:39:27;16.11;90.64
65637;DHT22;52327;42.622;23.316;2023-06-14T00:41:53;15.91;90.20
65637;DHT22;52327;42.622;23.316;2023-06-14T00:44:18;15.63;90.90
65637;DHT22;52327;42.622;23.316;2023-06-14T00:46:47;15.59;91.55
65637;DHT22;52327;42.622;23.316;2023-06-14T00:49:16;15.77;91.66
65637;DHT22;52327;42.622;23.316;2023-06-14T00:51:42;15.86;91.68
65637;DHT22;52327;42.622;23.316;2023-06-14T00:54:08;16.01;91.27
65637;DHT22;52327;42.622;23.316;2023-06-14T00:56:36;16.18;90.45
65637;DHT22;52327;42.622;23.316;2023-06-14T00:59:02;16.21;90.29
65637;DHT22;52327;42.622;23.316;2023-06-14T01:01:28;16.14;90.42
65637;DHT22;52327;42.622;23.316;2023-06-14T01:03:58;16.14;90.04
65637;DHT22;52327;42.622;23.316;2023-06-14T01:09:35;16.07;90.19
65637;DHT22;52327;42.622;23.316;2023-06-14T01:15:01;15.80;89.52
65637;DHT22;52327;42.622;23.316;2023-06-14T01:17:28;15.53;90.08
65637;DHT22;52327;42.622;23.316;2023-06-14T01:20:03;15.59;90.73
65637;DHT22;52327;42.622;23.316;2023-06-14T01:22:32;15.66;91.04
65637;DHT22;52327;42.622;23.316;2023-06-14T01:24:58;15.73;91.04
65637;DHT22;52327;42.622;23.316;2023-06-14T01:27:24;15.74;90.86
65637;DHT22;52327;42.622;23.316;2023-06-14T01:29:54;15.71;90.99
65637;DHT22;52327;42.622;23.316;2023-06-14T01:32:24;15.52;90.16
65637;DHT22;52327;42.622;23.316;2023-06-14T01:34:51;15.23;90.58
65637;DHT22;52327;42.622;23.316;2023-06-14T01:37:17;15.23;91.62
65637;DHT22;52327;42.622;23.316;2023-06-14T01:39:43;15.42;91.24
65637;DHT22;52327;42.622;23.316;2023-06-14T01:42:09;15.56;91.02
65637;DHT22;52327;42.622;23.316;2023-06-14T01:44:36;15.67;90.73
65637;DHT22;52327;42.622;23.316;2023-06-14T01:47:02;15.70;90.49
65637;DHT22;52327;42.622;23.316;2023-06-14T01:49:28;15.46;90.12
65637;DHT22;52327;42.622;23.316;2023-06-14T01:51:53;15.25;90.78
65637;DHT22;52327;42.622;23.316;2023-06-14T01:54:19;15.19;91.20
65637;DHT22;52327;42.622;23.316;2023-06-14T01:56:44;15.16;91.28
65637;DHT22;52327;42.622;23.316;2023-06-14T01:59:10;15.05;91.55
65637;DHT22;52327;42.622;23.316;2023-06-14T02:01:36;14.98;92.00
65637;DHT22;52327;42.622;23.316;2023-06-14T02:04:01;14.93;91.85
65637;DHT22;52327;42.622;23.316;2023-06-14T02:06:27;14.91;92.17
65637;DHT22;52327;42.622;23.316;2023-06-14T02:08:55;14.99;91.90
65637;DHT22;52327;42.622;23.316;2023-06-14T02:11:21;14.92;91.95
65637;DHT22;52327;42.622;23.316;2023-06-14T02:13:46;15.02;91.38
65637;DHT22;52327;42.622;23.316;2023-06-14T02:16:12;14.92;91.78
65637;DHT22;52327;42.622;23.316;2023-06-14T02:18:37;14.93;91.85
65637;DHT22;52327;42.622;23.316;2023-06-14T02:21:03;14.99;91.38
65637;DHT22;52327;42.622;23.316;2023-06-14T02:23:28;14.85;91.68
65637;DHT22;52327;42.622;23.316;2023-06-14T02:25:54;14.71;91.67
65637;DHT22;52327;42.622;23.316;2023-06-14T02:28:19;14.81;91.55
65637;DHT22;52327;42.622;23.316;2023-06-14T02:30:45;14.98;91.26
65637;DHT22;52327;42.622;23.316;2023-06-14T02:33:11;15.06;91.48
65637;DHT22;52327;42.622;23.316;2023-06-14T02:35:38;15.25;90.72
65637;DHT22;52327;42.622;23.316;2023-06-14T02:38:03;15.08;90.57
65637;DHT22;52327;42.622;23.316;2023-06-14T02:40:29;14.75;91.06
65637;DHT22;52327;42.622;23.316;2023-06-14T02:42:54;14.59;91.80
65637;DHT22;52327;42.622;23.316;2023-06-14T02:45:20;14.56;92.20
65637;DHT22;52327;42.622;23.316;2023-06-14T02:47:46;14.72;91.75
65637;DHT22;52327;42.622;23.316;2023-06-14T02:50:11;14.87;91.31
65637;DHT22;52327;42.622;23.316;2023-06-14T02:52:37;14.77;91.55
65637;DHT22;52327;42.622;23.316;2023-06-14T02:55:03;14.92;91.57
65637;DHT22;52327;42.622;23.316;2023-06-14T02:57:29;15.03;91.26
65637;DHT22;52327;42.622;23.316;2023-06-14T02:59:54;14.96;90.97
65637;DHT22;52327;42.622;23.316;2023-06-14T03:02:20;14.77;91.69
65637;DHT22;52327;42.622;23.316;2023-06-14T03:04:45;14.80;92.06
65637;DHT22;52327;42.622;23.316;2023-06-14T03:07:12;14.99;91.61
65637;DHT22;52327;42.622;23.316;2023-06-14T03:09:38;15.18;91.39
65637;DHT22;52327;42.622;23.316;2023-06-14T03:12:04;15.38;90.91
65637;DHT22;52327;42.622;23.316;2023-06-14T03:14:32;15.46;90.87
65637;DHT22;52327;42.622;23.316;2023-06-14T03:16:58;15.49;90.42
65637;DHT22;52327;42.622;23.316;2023-06-14T03:19:24;15.33;89.97
65637;DHT22;52327;42.622;23.316;2023-06-14T03:21:51;15.02;89.60
65637;DHT22;52327;42.622;23.316;2023-06-14T03:24:17;14.75;91.08
65637;DHT22;52327;42.622;23.316;2023-06-14T03:26:43;14.89;91.44
65637;DHT22;52327;42.622;23.316;2023-06-14T03:29:11;15.12;90.77
65637;DHT22;52327;42.622;23.316;2023-06-14T03:31:56;15.13;90.68
65637;DHT22;52327;42.622;23.316;2023-06-14T03:34:23;15.29;90.36
65637;DHT22;52327;42.622;23.316;2023-06-14T03:36:48;15.21;90.16
65637;DHT22;52327;42.622;23.316;2023-06-14T03:39:14;14.99;90.23
65637;DHT22;52327;42.622;23.316;2023-06-14T03:41:40;14.99;90.74
65637;DHT22;52327;42.622;23.316;2023-06-14T03:44:06;14.95;91.60
65637;DHT22;52327;42.622;23.316;2023-06-14T03:46:31;14.88;91.72
65637;DHT22;52327;42.622;23.316;2023-06-14T03:48:56;14.89;91.44
65637;DHT22;52327;42.622;23.316;2023-06-14T03:51:24;14.96;91.92
65637;DHT22;52327;42.622;23.316;2023-06-14T03:53:50;15.28;91.47
65637;DHT22;52327;42.622;23.316;2023-06-14T03:56:16;15.44;91.71
65637;DHT22;52327;42.622;23.316;2023-06-14T03:58:41;15.64;91.30
65637;DHT22;52327;42.622;23.316;2023-06-14T04:01:07;15.77;91.06
65637;DHT22;52327;42.622;23.316;2023-06-14T04:03:32;15.97;90.61
65637;DHT22;52327;42.622;23.316;2023-06-14T04:05:58;15.96;90.45
65637;DHT22;52327;42.622;23.316;2023-06-14T04:08:25;16.03;89.82
65637;DHT22;52327;42.622;23.316;2023-06-14T04:10:50;16.03;90.00
65637;DHT22;52327;42.622;23.316;2023-06-14T04:13:16;16.21;89.66
65637;DHT22;52327;42.622;23.316;2023-06-14T04:15:42;16.20;89.54
65637;DHT22;52327;42.622;23.316;2023-06-14T04:18:09;16.22;89.36
65637;DHT22;52327;42.622;23.316;2023-06-14T04:20:34;16.29;89.09
65637;DHT22;52327;42.622;23.316;2023-06-14T04:23:11;16.32;88.94
65637;DHT22;52327;42.622;23.316;2023-06-14T04:25:38;16.31;89.07
65637;DHT22;52327;42.622;23.316;2023-06-14T04:28:03;16.28;89.09
65637;DHT22;52327;42.622;23.316;2023-06-14T04:30:29;16.25;89.23
65637;DHT22;52327;42.622;23.316;2023-06-14T04:32:56;16.20;89.41
65637;DHT22;52327;42.622;23.316;2023-06-14T04:35:22;16.34;89.23
65637;DHT22;52327;42.622;23.316;2023-06-14T04:37:49;16.40;89.02
65637;DHT22;52327;42.622;23.316;2023-06-14T04:40:18;16.44;89.12
65637;DHT22;52327;42.622;23.316;2023-06-14T04:42:43;16.48;88.99
65637;DHT22;52327;42.622;23.316;2023-06-14T04:45:10;16.47;89.37
65637;DHT22;52327;42.622;23.316;2023-06-14T04:47:36;16.76;87.83
65637;DHT22;52327;42.622;23.316;2023-06-14T04:50:03;16.72;89.32
65637;DHT22;52327;42.622;23.316;2023-06-14T04:52:29;16.82;89.18
65637;DHT22;52327;42.622;23.316;2023-06-14T04:54:55;16.89;89.08
65637;DHT22;52327;42.622;23.316;2023-06-14T04:57:21;16.95;89.17
65637;DHT22;52327;42.622;23.316;2023-06-14T04:59:48;17.07;88.33
65637;DHT22;52327;42.622;23.316;2023-06-14T05:02:13;17.15;88.06
65637;DHT22;52327;42.622;23.316;2023-06-14T05:04:39;17.37;87.26
65637;DHT22;52327;42.622;23.316;2023-06-14T05:07:08;17.47;87.95
65637;DHT22;52327;42.622;23.316;2023-06-14T05:09:35;17.50;87.48
65637;DHT22;52327;42.622;23.316;2023-06-14T05:12:01;17.50;87.58
65637;DHT22;52327;42.622;23.316;2023-06-14T05:14:26;17.67;87.35
65637;DHT22;52327;42.622;23.316;2023-06-14T05:16:52;17.81;87.89
65637;DHT22;52327;42.622;23.316;2023-06-14T05:19:19;17.99;86.89
65637;DHT22;52327;42.622;23.316;2023-06-14T05:21:46;18.10;86.29
65637;DHT22;52327;42.622;23.316;2023-06-14T05:24:12;18.13;87.39
65637;DHT22;52327;42.622;23.316;2023-06-14T05:26:38;18.19;85.99
65637;DHT22;52327;42.622;23.316;2023-06-14T05:29:03;18.28;86.67
65637;DHT22;52327;42.622;23.316;2023-06-14T05:31:29;18.39;85.79
65637;DHT22;52327;42.622;23.316;2023-06-14T05:33:54;18.43;85.94
65637;DHT22;52327;42.622;23.316;2023-06-14T05:36:20;18.63;86.99
65637;DHT22;52327;42.622;23.316;2023-06-14T05:38:52;18.61;85.28
65637;DHT22;52327;42.622;23.316;2023-06-14T05:41:25;18.63;84.53
65637;DHT22;52327;42.622;23.316;2023-06-14T05:43:51;18.36;85.45
65637;DHT22;52327;42.622;23.316;2023-06-14T05:46:17;18.48;86.24
65637;DHT22;52327;42.622;23.316;2023-06-14T05:48:48;18.70;86.52
65637;DHT22;52327;42.622;23.316;2023-06-14T05:51:14;18.87;86.21
65637;DHT22;52327;42.622;23.316;2023-06-14T05:53:39;18.91;84.04
65637;DHT22;52327;42.622;23.316;2023-06-14T05:56:05;18.87;85.26
65637;DHT22;52327;42.622;23.316;2023-06-14T05:58:30;18.91;84.61
65637;DHT22;52327;42.622;23.316;2023-06-14T06:00:56;18.76;84.86
65637;DHT22;52327;42.622;23.316;2023-06-14T06:03:23;18.73;85.86
65637;DHT22;52327;42.622;23.316;2023-06-14T06:05:48;18.64;86.55
65637;DHT22;52327;42.622;23.316;2023-06-14T06:08:14;18.55;85.86
65637;DHT22;52327;42.622;23.316;2023-06-14T06:10:39;18.22;84.82
65637;DHT22;52327;42.622;23.316;2023-06-14T06:13:05;18.21;84.99
65637;DHT22;52327;42.622;23.316;2023-06-14T06:15:30;18.21;85.52
65637;DHT22;52327;42.622;23.316;2023-06-14T06:17:56;18.16;85.22
65637;DHT22;52327;42.622;23.316;2023-06-14T06:20:22;18.04;87.07
65637;DHT22;52327;42.622;23.316;2023-06-14T06:22:53;17.99;87.12
65637;DHT22;52327;42.622;23.316;2023-06-14T06:25:19;18.01;86.95
65637;DHT22;52327;42.622;23.316;2023-06-14T06:27:45;18.04;87.64
65637;DHT22;52327;42.622;23.316;2023-06-14T06:30:11;17.89;86.42
65637;DHT22;52327;42.622;23.316;2023-06-14T06:32:37;17.47;86.22
65637;DHT22;52327;42.622;23.316;2023-06-14T06:35:02;17.23;88.19
65637;DHT22;52327;42.622;23.316;2023-06-14T06:37:31;17.17;88.03
65637;DHT22;52327;42.622;23.316;2023-06-14T06:39:56;17.48;87.21
65637;DHT22;52327;42.622;23.316;2023-06-14T06:42:22;17.41;86.48
65637;DHT22;52327;42.622;23.316;2023-06-14T06:44:47;17.33;87.21
65637;DHT22;52327;42.622;23.316;2023-06-14T06:47:13;17.38;87.91
65637;DHT22;52327;42.622;23.316;2023-06-14T06:49:38;17.55;87.86
65637;DHT22;52327;42.622;23.316;2023-06-14T06:52:05;17.81;88.04
65637;DHT22;52327;42.622;23.316;2023-06-14T06:54:31;18.15;87.40
65637;DHT22;52327;42.622;23.316;2023-06-14T06:56:57;18.53;86.43
65637;DHT22;52327;42.622;23.316;2023-06-14T06:59:23;18.83;86.48
65637;DHT22;52327;42.622;23.316;2023-06-14T07:01:49;19.12;85.51
65637;DHT22;52327;42.622;23.316;2023-06-14T07:04:14;19.30;84.79
65637;DHT22;52327;42.622;23.316;2023-06-14T07:06:41;19.66;84.02
65637;DHT22;52327;42.622;23.316;2023-06-14T07:09:07;20.10;85.19
65637;DHT22;52327;42.622;23.316;2023-06-14T07:11:37;20.54;84.14
65637;DHT22;52327;42.622;23.316;2023-06-14T07:14:02;20.65;80.69
65637;DHT22;52327;42.622;23.316;2023-06-14T07:16:28;20.84;81.05
65637;DHT22;52327;42.622;23.316;2023-06-14T07:18:53;20.91;78.79
65637;DHT22;52327;42.622;23.316;2023-06-14T07:21:19;20.71;80.25
65637;DHT22;52327;42.622;23.316;2023-06-14T07:23:44;20.85;80.83
65637;DHT22;52327;42.622;23.316;2023-06-14T07:26:10;20.82;79.63
65637;DHT22;52327;42.622;23.316;2023-06-14T07:28:36;20.32;77.37
65637;DHT22;52327;42.622;23.316;2023-06-14T07:31:01;20.43;79.24
65637;DHT22;52327;42.622;23.316;2023-06-14T07:33:28;20.81;78.22
65637;DHT22;52327;42.622;23.316;2023-06-14T07:35:53;21.33;75.95
65637;DHT22;52327;42.622;23.316;2023-06-14T07:38:19;21.53;75.37
65637;DHT22;52327;42.622;23.316;2023-06-14T07:40:44;21.49;76.74
65637;DHT22;52327;42.622;23.316;2023-06-14T07:43:10;21.66;78.57
65637;DHT22;52327;42.622;23.316;2023-06-14T07:45:36;22.20;75.36
65637;DHT22;52327;42.622;23.316;2023-06-14T07:48:02;22.18;73.81
65637;DHT22;52327;42.622;23.316;2023-06-14T07:50:28;22.21;74.41
65637;DHT22;52327;42.622;23.316;2023-06-14T07:52:54;22.30;74.89
65637;DHT22;52327;42.622;23.316;2023-06-14T07:55:19;22.41;75.02
65637;DHT22;52327;42.622;23.316;2023-06-14T07:57:44;21.83;73.41
65637;DHT22;52327;42.622;23.316;2023-06-14T08:00:10;21.90;74.68
65637;DHT22;52327;42.622;23.316;2023-06-14T08:02:44;22.15;75.54
65637;DHT22;52327;42.622;23.316;2023-06-14T08:05:10;22.40;76.68
65637;DHT22;52327;42.622;23.316;2023-06-14T08:07:36;22.48;75.20
65637;DHT22;52327;42.622;23.316;2023-06-14T08:10:07;22.01;74.25
65637;DHT22;52327;42.622;23.316;2023-06-14T08:12:33;21.65;72.58
65637;DHT22;52327;42.622;23.316;2023-06-14T08:15:00;21.79;74.77
65637;DHT22;52327;42.622;23.316;2023-06-14T08:17:25;21.83;73.42
65637;DHT22;52327;42.622;23.316;2023-06-14T08:19:51;22.07;74.19
65637;DHT22;52327;42.622;23.316;2023-06-14T08:22:17;21.84;72.21
65637;DHT22;52327;42.622;23.316;2023-06-14T08:24:43;22.07;73.39
65637;DHT22;52327;42.622;23.316;2023-06-14T08:27:09;21.92;73.55
65637;DHT22;52327;42.622;23.316;2023-06-14T08:29:35;22.22;72.04
65637;DHT22;52327;42.622;23.316;2023-06-14T08:32:01;22.44;70.84
65637;DHT22;52327;42.622;23.316;2023-06-14T08:34:27;22.69;70.76
65637;DHT22;52327;42.622;23.316;2023-06-14T08:36:52;22.56;70.66
65637;DHT22;52327;42.622;23.316;2023-06-14T08:39:18;22.25;73.22
65637;DHT22;52327;42.622;23.316;2023-06-14T08:41:47;21.86;71.22
65637;DHT22;52327;42.622;23.316;2023-06-14T08:44:16;21.86;72.96
65637;DHT22;52327;42.622;23.316;2023-06-14T08:46:42;22.14;74.45
65637;DHT22;52327;42.622;23.316;2023-06-14T08:49:11;22.62;72.80
65637;DHT22;52327;42.622;23.316;2023-06-14T08:51:37;23.19;69.63
65637;DHT22;52327;42.622;23.316;2023-06-14T08:54:03;23.05;69.14
65637;DHT22;52327;42.622;23.316;2023-06-14T08:56:30;23.03;69.83
65637;DHT22;52327;42.622;23.316;2023-06-14T08:58:57;22.75;70.68
65637;DHT22;52327;42.622;23.316;2023-06-14T09:01:26;22.79;71.61
65637;DHT22;52327;42.622;23.316;2023-06-14T09:03:52;22.82;72.79
65637;DHT22;52327;42.622;23.316;2023-06-14T09:06:20;23.17;70.61
65637;DHT22;52327;42.622;23.316;2023-06-14T09:08:48;23.37;70.20
65637;DHT22;52327;42.622;23.316;2023-06-14T09:11:16;23.34;71.11
65637;DHT22;52327;42.622;23.316;2023-06-14T09:13:45;23.34;71.83
65637;DHT22;52327;42.622;23.316;2023-06-14T09:16:10;23.53;70.38
65637;DHT22;52327;42.622;23.316;2023-06-14T09:18:38;23.63;70.15
65637;DHT22;52327;42.622;23.316;2023-06-14T09:21:05;23.74;68.38
65637;DHT22;52327;42.622;23.316;2023-06-14T09:23:36;23.94;70.69
65637;DHT22;52327;42.622;23.316;2023-06-14T09:26:08;24.09;68.56
65637;DHT22;52327;42.622;23.316;2023-06-14T09:28:35;24.08;68.80
65637;DHT22;52327;42.622;23.316;2023-06-14T09:31:01;23.98;69.95
65637;DHT22;52327;42.622;23.316;2023-06-14T09:33:26;23.89;70.06
65637;DHT22;52327;42.622;23.316;2023-06-14T09:35:54;23.84;70.33
65637;DHT22;52327;42.622;23.316;2023-06-14T09:38:20;23.85;68.37
65637;DHT22;52327;42.622;23.316;2023-06-14T09:40:45;23.68;69.82
65637;DHT22;52327;42.622;23.316;2023-06-14T09:43:11;23.74;70.12
65637;DHT22;52327;42.622;23.316;2023-06-14T09:45:38;23.80;70.32
65637;DHT22;52327;42.622;23.316;2023-06-14T09:48:06;23.71;71.92
65637;DHT22;52327;42.622;23.316;2023-06-14T09:50:32;23.67;72.52
65637;DHT22;52327;42.622;23.316;2023-06-14T09:53:07;23.63;72.16
65637;DHT22;52327;42.622;23.316;2023-06-14T09:55:36;23.75;70.73
65637;DHT22;52327;42.622;23.316;2023-06-14T09:58:05;23.77;71.23
65637;DHT22;52327;42.622;23.316;2023-06-14T10:00:32;23.87;70.97
65637;DHT22;52327;42.622;23.316;2023-06-14T10:03:06;23.85;71.44
65637;DHT22;52327;42.622;23.316;2023-06-14T10:05:39;23.85;69.95
65637;DHT22;52327;42.622;23.316;2023-06-14T10:08:13;23.96;69.89
65637;DHT22;52327;42.622;23.316;2023-06-14T10:10:42;23.89;68.68
65637;DHT22;52327;42.622;23.316;2023-06-14T10:13:08;23.78;70.19
65637;DHT22;52327;42.622;23.316;2023-06-14T10:18:48;22.91;72.16
65637;DHT22;52327;42.622;23.316;2023-06-14T10:24:03;22.47;71.22
65637;DHT22;52327;42.622;23.316;2023-06-14T10:26:30;22.47;74.23
65637;DHT22;52327;42.622;23.316;2023-06-14T10:29:07;23.00;69.50
65637;DHT22;52327;42.622;23.316;2023-06-14T10:31:44;23.10;73.05
65637;DHT22;52327;42.622;23.316;2023-06-14T10:34:12;23.30;71.22
65637;DHT22;52327;42.622;23.316;2023-06-14T10:36:41;23.33;69.99
65637;DHT22;52327;42.622;23.316;2023-06-14T10:39:07;23.60;71.82
65637;DHT22;52327;42.622;23.316;2023-06-14T10:41:38;23.93;71.51
65637;DHT22;52327;42.622;23.316;2023-06-14T10:47:21;24.62;68.78
65637;DHT22;52327;42.622;23.316;2023-06-14T10:52:08;25.07;68.39
65637;DHT22;52327;42.622;23.316;2023-06-14T10:54:59;25.40;69.02
65637;DHT22;52327;42.622;23.316;2023-06-14T10:57:24;25.42;63.67
65637;DHT22;52327;42.622;23.316;2023-06-14T10:59:50;25.23;65.13
65637;DHT22;52327;42.622;23.316;2023-06-14T11:04:49;24.69;65.72
65637;DHT22;52327;42.622;23.316;2023-06-14T11:10:26;24.62;69.73
65637;DHT22;52327;42.622;23.316;2023-06-14T11:12:55;24.72;67.52
65637;DHT22;52327;42.622;23.316;2023-06-14T11:15:30;24.91;68.01
65637;DHT22;52327;42.622;23.316;2023-06-14T11:17:57;24.94;65.49
65637;DHT22;52327;42.622;23.316;2023-06-14T11:20:26;24.97;65.88
65637;DHT22;52327;42.622;23.316;2023-06-14T11:22:53;25.00;65.55
65637;DHT22;52327;42.622;23.316;2023-06-14T11:25:19;25.16;65.63
65637;DHT22;52327;42.622;23.316;2023-06-14T11:27:45;25.17;67.47
65637;DHT22;52327;42.622;23.316;2023-06-14T11:30:12;25.80;67.76
65637;DHT22;52327;42.622;23.316;2023-06-14T11:32:39;25.93;67.43
65637;DHT22;52327;42.622;23.316;2023-06-14T11:35:05;26.13;65.20
65637;DHT22;52327;42.622;23.316;2023-06-14T11:37:31;26.11;64.94
65637;DHT22;52327;42.622;23.316;2023-06-14T11:40:01;26.06;64.55
65637;DHT22;52327;42.622;23.316;2023-06-14T11:42:27;25.71;66.00
65637;DHT22;52327;42.622;23.316;2023-06-14T11:44:54;25.60;66.88
65637;DHT22;52327;42.622;23.316;2023-06-14T11:47:22;26.02;64.26
65637;DHT22;52327;42.622;23.316;2023-06-14T11:49:47;29.28;57.50
65637;DHT22;52327;42.622;23.316;2023-06-14T11:52:14;29.73;55.06
65637;DHT22;52327;42.622;23.316;2023-06-14T11:54:40;28.84;55.65
65637;DHT22;52327;42.622;23.316;2023-06-14T11:57:06;28.07;58.23
65637;DHT22;52327;42.622;23.316;2023-06-14T11:59:38;27.46;60.59
65637;DHT22;52327;42.622;23.316;2023-06-14T12:02:04;27.04;60.77
65637;DHT22;52327;42.622;23.316;2023-06-14T12:04:30;26.79;61.08
65637;DHT22;52327;42.622;23.316;2023-06-14T12:06:56;26.57;61.85
65637;DHT22;52327;42.622;23.316;2023-06-14T12:09:22;26.30;64.45
65637;DHT22;52327;42.622;23.316;2023-06-14T12:11:49;26.16;64.37
65637;DHT22;52327;42.622;23.316;2023-06-14T12:14:15;26.12;60.18
65637;DHT22;52327;42.622;23.316;2023-06-14T12:16:41;25.93;63.58
65637;DHT22;52327;42.622;23.316;2023-06-14T12:19:14;25.78;65.02
65637;DHT22;52327;42.622;23.316;2023-06-14T12:21:40;25.71;63.31
65637;DHT22;52327;42.622;23.316;2023-06-14T12:24:06;25.70;63.73
65637;DHT22;52327;42.622;23.316;2023-06-14T12:26:32;25.60;63.86
65637;DHT22;52327;42.622;23.316;2023-06-14T12:28:58;25.41;65.71
65637;DHT22;52327;42.622;23.316;2023-06-14T12:31:24;25.31;65.25
65637;DHT22;52327;42.622;23.316;2023-06-14T12:33:50;25.26;64.80
65637;DHT22;52327;42.622;23.316;2023-06-14T12:36:15;25.11;66.57
65637;DHT22;52327;42.622;23.316;2023-06-14T12:38:42;24.97;67.51
65637;DHT22;52327;42.622;23.316;2023-06-14T12:41:08;24.87;66.57
65637;DHT22;52327;42.622;23.316;2023-06-14T12:43:33;24.79;67.96
65637;DHT22;52327;42.622;23.316;2023-06-14T12:46:00;24.76;66.84
65637;DHT22;52327;42.622;23.316;2023-06-14T12:48:25;24.80;66.32
65637;DHT22;52327;42.622;23.316;2023-06-14T12:50:52;24.69;66.81
65637;DHT22;52327;42.622;23.316;2023-06-14T12:53:18;24.51;68.65
65637;DHT22;52327;42.622;23.316;2023-06-14T12:55:43;24.21;70.85
65637;DHT22;52327;42.622;23.316;2023-06-14T12:58:09;24.14;69.89
65637;DHT22;52327;42.622;23.316;2023-06-14T13:00:37;24.04;69.39
65637;DHT22;52327;42.622;23.316;2023-06-14T13:03:03;23.94;70.40
65637;DHT22;52327;42.622;23.316;2023-06-14T13:05:29;23.71;71.41
65637;DHT22;52327;42.622;23.316;2023-06-14T13:07:56;23.57;71.45
65637;DHT22;52327;42.622;23.316;2023-06-14T13:10:21;22.94;74.91
65637;DHT22;52327;42.622;23.316;2023-06-14T13:12:47;22.35;76.42
65637;DHT22;52327;42.622;23.316;2023-06-14T13:15:12;21.80;76.36
65637;DHT22;52327;42.622;23.316;2023-06-14T13:17:38;21.11;79.08
65637;DHT22;52327;42.622;23.316;2023-06-14T13:20:07;20.64;80.61
65637;DHT22;52327;42.622;23.316;2023-06-14T13:22:33;20.37;81.16
65637;DHT22;52327;42.622;23.316;2023-06-14T13:24:59;20.13;80.62
65637;DHT22;52327;42.622;23.316;2023-06-14T13:27:26;19.89;82.46
65637;DHT22;52327;42.622;23.316;2023-06-14T13:29:51;19.69;85.12
65637;DHT22;52327;42.622;23.316;2023-06-14T13:32:17;19.59;86.09
65637;DHT22;52327;42.622;23.316;2023-06-14T13:34:42;19.52;85.79
65637;DHT22;52327;42.622;23.316;2023-06-14T13:37:08;19.62;84.03
65637;DHT22;52327;42.622;23.316;2023-06-14T13:39:33;19.54;84.95
65637;DHT22;52327;42.622;23.316;2023-06-14T13:41:59;19.57;84.53
65637;DHT22;52327;42.622;23.316;2023-06-14T13:44:24;19.58;85.25
65637;DHT22;52327;42.622;23.316;2023-06-14T13:46:50;19.62;83.99
65637;DHT22;52327;42.622;23.316;2023-06-14T13:49:16;19.51;84.94
65637;DHT22;52327;42.622;23.316;2023-06-14T13:51:42;19.38;84.33
65637;DHT22;52327;42.622;23.316;2023-06-14T13:54:07;19.32;83.48
65637;DHT22;52327;42.622;23.316;2023-06-14T13:56:32;19.32;82.71
65637;DHT22;52327;42.622;23.316;2023-06-14T13:58:58;19.38;81.01
65637;DHT22;52327;42.622;23.316;2023-06-14T14:01:25;19.22;83.64
65637;DHT22;52327;42.622;23.316;2023-06-14T14:03:51;19.10;83.79
65637;DHT22;52327;42.622;23.316;2023-06-14T14:06:17;19.17;81.33
65637;DHT22;52327;42.622;23.316;2023-06-14T14:08:42;19.06;82.48
65637;DHT22;52327;42.622;23.316;2023-06-14T14:11:09;19.01;83.89
65637;DHT22;52327;42.622;23.316;2023-06-14T14:13:35;18.94;84.12
65637;DHT22;52327;42.622;23.316;2023-06-14T14:16:02;18.96;84.70
65637;DHT22;52327;42.622;23.316;2023-06-14T14:18:29;18.97;84.54
65637;DHT22;52327;42.622;23.316;2023-06-14T14:20:54;19.06;83.91
65637;DHT22;52327;42.622;23.316;2023-06-14T14:23:21;19.11;83.99
65637;DHT22;52327;42.622;23.316;2023-06-14T14:25:47;19.04;84.81
65637;DHT22;52327;42.622;23.316;2023-06-14T14:28:13;19.17;82.53
65637;DHT22;52327;42.622;23.316;2023-06-14T14:30:41;19.27;79.45
65637;DHT22;52327;42.622;23.316;2023-06-14T14:33:07;19.15;82.94
65637;DHT22;52327;42.622;23.316;2023-06-14T14:35:33;19.18;81.18
65637;DHT22;52327;42.622;23.316;2023-06-14T14:37:58;19.12;80.69
65637;DHT22;52327;42.622;23.316;2023-06-14T14:40:24;19.11;80.91
65637;DHT22;52327;42.622;23.316;2023-06-14T14:42:50;19.01;82.41
65637;DHT22;52327;42.622;23.316;2023-06-14T14:45:15;19.00;82.96
65637;DHT22;52327;42.622;23.316;2023-06-14T14:47:41;18.99;83.76
65637;DHT22;52327;42.622;23.316;2023-06-14T14:50:06;19.00;84.11
65637;DHT22;52327;42.622;23.316;2023-06-14T14:52:35;19.07;84.38
65637;DHT22;52327;42.622;23.316;2023-06-14T14:55:01;19.10;84.21
65637;DHT22;52327;42.622;23.316;2023-06-14T14:57:27;19.07;84.33
65637;DHT22;52327;42.622;23.316;2023-06-14T14:59:52;19.04;85.31
65637;DHT22;52327;42.622;23.316;2023-06-14T15:02:18;19.06;84.90
65637;DHT22;52327;42.622;23.316;2023-06-14T15:04:45;19.06;85.06
65637;DHT22;52327;42.622;23.316;2023-06-14T15:07:11;19.14;83.95
65637;DHT22;52327;42.622;23.316;2023-06-14T15:09:36;19.18;83.26
65637;DHT22;52327;42.622;23.316;2023-06-14T15:12:02;19.07;85.38
65637;DHT22;52327;42.622;23.316;2023-06-14T15:14:27;19.07;85.10
65637;DHT22;52327;42.622;23.316;2023-06-14T15:16:53;18.93;85.50
65637;DHT22;52327;42.622;23.316;2023-06-14T15:19:18;18.96;85.81
65637;DHT22;52327;42.622;23.316;2023-06-14T15:21:44;19.00;86.17
65637;DHT22;52327;42.622;23.316;2023-06-14T15:24:09;19.00;87.01
65637;DHT22;52327;42.622;23.316;2023-06-14T15:26:35;19.20;85.25
65637;DHT22;52327;42.622;23.316;2023-06-14T15:29:00;19.28;84.43
65637;DHT22;52327;42.622;23.316;2023-06-14T15:31:26;19.35;84.52
65637;DHT22;52327;42.622;23.316;2023-06-14T15:33:53;19.34;85.01